Disclaimer

Please do not use the information listed here in-flight or in-navigation, as they are not provided to us by the airports but are provided by volunteers, so they might be outdated.

Search


Regions


Airport information page

Radio informations:
ORAN TWR - 118.1 MHz
ORAN APP - 128.2 MHz

Airport informations:
Latitude: 35° 37' 25.89" N
Longitude: 000° 37' 16.26" W
Elevation: 295 feet - 90 meters
Operating hours: Remarks
Operating agency: Civil government, landing fees and diplomatic clearance may be required
Timezone: UTC+1 - Dates notified by NOTAM
Fuel: N/A

Runway information:
07/25 - 10039 x 148 feet< - >3060 x 45 meters

Recent METARs:
DAOO 130230Z 00000KT 9999 SCT013 SCT026 14/14 Q1018
DAOO 130300Z 00000KT 0500 FG SCT013 SCT026 14/14 Q1018
DAOO 130330Z 00000KT 0500 FG SCT013 SCT026 14/14 Q1018

Airport on the map: